sensor_id;sensor_type;location;lat;lon;timestamp;P1;durP1;ratioP1;P2;durP2;ratioP2
12593;SDS011;6362;50.208;9.182;2023-09-08T00:02:04;4.90;;;3.38;;
12593;SDS011;6362;50.208;9.182;2023-09-08T00:04:29;4.97;;;3.90;;
12593;SDS011;6362;50.208;9.182;2023-09-08T00:06:55;7.20;;;3.85;;
12593;SDS011;6362;50.208;9.182;2023-09-08T00:09:20;3.88;;;3.20;;
12593;SDS011;6362;50.208;9.182;2023-09-08T00:11:45;5.50;;;3.67;;
12593;SDS011;6362;50.208;9.182;2023-09-08T00:14:11;5.75;;;4.13;;
12593;SDS011;6362;50.208;9.182;2023-09-08T00:16:36;6.20;;;3.97;;
12593;SDS011;6362;50.208;9.182;2023-09-08T00:19:04;7.05;;;3.50;;
12593;SDS011;6362;50.208;9.182;2023-09-08T00:21:29;7.72;;;4.45;;
12593;SDS011;6362;50.208;9.182;2023-09-08T00:23:55;8.13;;;3.90;;
12593;SDS011;6362;50.208;9.182;2023-09-08T00:26:21;5.13;;;3.60;;
12593;SDS011;6362;50.208;9.182;2023-09-08T00:28:47;6.32;;;3.50;;
12593;SDS011;6362;50.208;9.182;2023-09-08T00:31:13;7.43;;;3.05;;
12593;SDS011;6362;50.208;9.182;2023-09-08T00:33:38;7.65;;;4.15;;
12593;SDS011;6362;50.208;9.182;2023-09-08T00:36:04;8.20;;;3.45;;
12593;SDS011;6362;50.208;9.182;2023-09-08T00:38:29;6.03;;;3.55;;
12593;SDS011;6362;50.208;9.182;2023-09-08T00:40:55;4.70;;;3.53;;
12593;SDS011;6362;50.208;9.182;2023-09-08T00:43:20;4.55;;;3.40;;
12593;SDS011;6362;50.208;9.182;2023-09-08T00:45:46;4.72;;;3.33;;
12593;SDS011;6362;50.208;9.182;2023-09-08T00:48:13;4.50;;;3.20;;
12593;SDS011;6362;50.208;9.182;2023-09-08T00:50:39;6.05;;;3.30;;
12593;SDS011;6362;50.208;9.182;2023-09-08T00:53:05;5.75;;;3.40;;
12593;SDS011;6362;50.208;9.182;2023-09-08T00:55:31;7.50;;;3.70;;
12593;SDS011;6362;50.208;9.182;2023-09-08T00:57:57;5.65;;;3.65;;
12593;SDS011;6362;50.208;9.182;2023-09-08T01:00:23;5.18;;;3.45;;
12593;SDS011;6362;50.208;9.182;2023-09-08T01:02:49;5.55;;;3.53;;
12593;SDS011;6362;50.208;9.182;2023-09-08T01:05:15;6.93;;;3.90;;
12593;SDS011;6362;50.208;9.182;2023-09-08T01:07:41;6.95;;;3.58;;
12593;SDS011;6362;50.208;9.182;2023-09-08T01:10:07;5.28;;;3.50;;
12593;SDS011;6362;50.208;9.182;2023-09-08T01:12:33;4.88;;;3.55;;
12593;SDS011;6362;50.208;9.182;2023-09-08T01:15:00;4.88;;;3.47;;
12593;SDS011;6362;50.208;9.182;2023-09-08T01:17:26;4.82;;;3.78;;
12593;SDS011;6362;50.208;9.182;2023-09-08T01:19:52;6.50;;;3.53;;
12593;SDS011;6362;50.208;9.182;2023-09-08T01:27:41;6.88;;;3.13;;
12593;SDS011;6362;50.208;9.182;2023-09-08T01:30:11;5.13;;;3.42;;
12593;SDS011;6362;50.208;9.182;2023-09-08T01:32:38;5.25;;;3.28;;
12593;SDS011;6362;50.208;9.182;2023-09-08T01:35:05;5.35;;;3.35;;
12593;SDS011;6362;50.208;9.182;2023-09-08T01:37:32;5.25;;;3.03;;
12593;SDS011;6362;50.208;9.182;2023-09-08T01:39:57;4.47;;;3.30;;
12593;SDS011;6362;50.208;9.182;2023-09-08T01:42:23;5.63;;;3.60;;
12593;SDS011;6362;50.208;9.182;2023-09-08T01:44:48;6.57;;;3.20;;
12593;SDS011;6362;50.208;9.182;2023-09-08T01:47:14;3.90;;;3.25;;
12593;SDS011;6362;50.208;9.182;2023-09-08T01:49:39;5.30;;;3.03;;
12593;SDS011;6362;50.208;9.182;2023-09-08T01:52:05;5.63;;;3.15;;
12593;SDS011;6362;50.208;9.182;2023-09-08T01:54:30;4.93;;;3.08;;
12593;SDS011;6362;50.208;9.182;2023-09-08T01:56:56;3.65;;;3.22;;
12593;SDS011;6362;50.208;9.182;2023-09-08T01:59:21;5.93;;;3.53;;
12593;SDS011;6362;50.208;9.182;2023-09-08T02:01:46;6.00;;;3.38;;
12593;SDS011;6362;50.208;9.182;2023-09-08T02:04:12;5.43;;;3.33;;
12593;SDS011;6362;50.208;9.182;2023-09-08T02:06:37;4.35;;;3.35;;
12593;SDS011;6362;50.208;9.182;2023-09-08T02:09:03;4.25;;;3.15;;
12593;SDS011;6362;50.208;9.182;2023-09-08T02:11:29;4.88;;;3.33;;
12593;SDS011;6362;50.208;9.182;2023-09-08T02:13:54;3.80;;;3.10;;
12593;SDS011;6362;50.208;9.182;2023-09-08T02:16:19;5.70;;;3.53;;
12593;SDS011;6362;50.208;9.182;2023-09-08T02:18:45;8.82;;;3.67;;
12593;SDS011;6362;50.208;9.182;2023-09-08T02:21:11;5.03;;;4.00;;
12593;SDS011;6362;50.208;9.182;2023-09-08T02:23:36;4.55;;;3.25;;
12593;SDS011;6362;50.208;9.182;2023-09-08T02:26:02;5.38;;;2.75;;
12593;SDS011;6362;50.208;9.182;2023-09-08T02:28:28;6.22;;;3.30;;
12593;SDS011;6362;50.208;9.182;2023-09-08T02:30:54;5.75;;;2.92;;
12593;SDS011;6362;50.208;9.182;2023-09-08T02:33:20;5.13;;;2.88;;
12593;SDS011;6362;50.208;9.182;2023-09-08T02:35:45;4.28;;;3.00;;
12593;SDS011;6362;50.208;9.182;2023-09-08T02:38:11;5.38;;;3.13;;
12593;SDS011;6362;50.208;9.182;2023-09-08T02:40:36;6.20;;;3.03;;
12593;SDS011;6362;50.208;9.182;2023-09-08T02:43:02;5.75;;;3.40;;
12593;SDS011;6362;50.208;9.182;2023-09-08T02:45:28;3.72;;;3.15;;
12593;SDS011;6362;50.208;9.182;2023-09-08T02:47:54;5.40;;;3.10;;
12593;SDS011;6362;50.208;9.182;2023-09-08T02:50:19;4.22;;;3.28;;
12593;SDS011;6362;50.208;9.182;2023-09-08T02:52:45;5.22;;;3.30;;
12593;SDS011;6362;50.208;9.182;2023-09-08T02:55:11;5.47;;;3.20;;
12593;SDS011;6362;50.208;9.182;2023-09-08T02:57:36;4.68;;;3.30;;
12593;SDS011;6362;50.208;9.182;2023-09-08T03:00:03;5.22;;;3.13;;
12593;SDS011;6362;50.208;9.182;2023-09-08T03:02:30;3.88;;;3.15;;
12593;SDS011;6362;50.208;9.182;2023-09-08T03:04:56;4.10;;;3.30;;
12593;SDS011;6362;50.208;9.182;2023-09-08T03:07:21;6.97;;;3.00;;
12593;SDS011;6362;50.208;9.182;2023-09-08T03:09:47;5.35;;;3.08;;
12593;SDS011;6362;50.208;9.182;2023-09-08T03:12:13;6.53;;;2.80;;
12593;SDS011;6362;50.208;9.182;2023-09-08T03:14:38;5.85;;;3.53;;
12593;SDS011;6362;50.208;9.182;2023-09-08T03:17:03;5.40;;;3.05;;
12593;SDS011;6362;50.208;9.182;2023-09-08T03:19:29;5.05;;;3.45;;
12593;SDS011;6362;50.208;9.182;2023-09-08T03:21:55;4.70;;;2.88;;
12593;SDS011;6362;50.208;9.182;2023-09-08T03:24:20;5.55;;;3.10;;
12593;SDS011;6362;50.208;9.182;2023-09-08T03:26:46;5.68;;;2.90;;
12593;SDS011;6362;50.208;9.182;2023-09-08T03:29:11;4.13;;;3.15;;
12593;SDS011;6362;50.208;9.182;2023-09-08T03:31:37;4.25;;;3.30;;
12593;SDS011;6362;50.208;9.182;2023-09-08T03:34:02;5.03;;;3.25;;
12593;SDS011;6362;50.208;9.182;2023-09-08T03:36:28;7.00;;;3.55;;
12593;SDS011;6362;50.208;9.182;2023-09-08T03:38:53;7.10;;;3.45;;
12593;SDS011;6362;50.208;9.182;2023-09-08T03:41:18;5.05;;;3.28;;
12593;SDS011;6362;50.208;9.182;2023-09-08T03:43:44;3.85;;;3.20;;
12593;SDS011;6362;50.208;9.182;2023-09-08T03:46:09;5.88;;;3.40;;
12593;SDS011;6362;50.208;9.182;2023-09-08T03:48:34;4.97;;;3.30;;
12593;SDS011;6362;50.208;9.182;2023-09-08T03:51:00;5.90;;;3.60;;
12593;SDS011;6362;50.208;9.182;2023-09-08T03:53:25;4.20;;;3.13;;
12593;SDS011;6362;50.208;9.182;2023-09-08T03:55:51;4.85;;;3.50;;
12593;SDS011;6362;50.208;9.182;2023-09-08T03:58:16;7.05;;;3.65;;
12593;SDS011;6362;50.208;9.182;2023-09-08T04:00:42;5.60;;;3.40;;
12593;SDS011;6362;50.208;9.182;2023-09-08T04:03:07;3.63;;;3.03;;
12593;SDS011;6362;50.208;9.182;2023-09-08T04:05:33;4.55;;;3.15;;
12593;SDS011;6362;50.208;9.182;2023-09-08T04:07:58;5.38;;;3.75;;
12593;SDS011;6362;50.208;9.182;2023-09-08T04:10:24;5.55;;;3.78;;
12593;SDS011;6362;50.208;9.182;2023-09-08T04:12:50;4.93;;;3.67;;
12593;SDS011;6362;50.208;9.182;2023-09-08T04:15:15;4.03;;;3.33;;
12593;SDS011;6362;50.208;9.182;2023-09-08T04:17:41;5.28;;;3.47;;
12593;SDS011;6362;50.208;9.182;2023-09-08T04:20:07;4.97;;;3.30;;
12593;SDS011;6362;50.208;9.182;2023-09-08T04:22:33;5.78;;;3.65;;
12593;SDS011;6362;50.208;9.182;2023-09-08T04:24:59;5.03;;;3.08;;
12593;SDS011;6362;50.208;9.182;2023-09-08T04:27:25;5.38;;;4.03;;
12593;SDS011;6362;50.208;9.182;2023-09-08T04:29:50;3.55;;;3.17;;
12593;SDS011;6362;50.208;9.182;2023-09-08T04:32:16;5.90;;;3.45;;
12593;SDS011;6362;50.208;9.182;2023-09-08T04:34:41;5.20;;;3.63;;
12593;SDS011;6362;50.208;9.182;2023-09-08T04:37:07;4.75;;;4.10;;
12593;SDS011;6362;50.208;9.182;2023-09-08T04:39:33;4.53;;;3.50;;
12593;SDS011;6362;50.208;9.182;2023-09-08T04:41:59;4.75;;;3.58;;
12593;SDS011;6362;50.208;9.182;2023-09-08T04:44:25;5.10;;;3.60;;
12593;SDS011;6362;50.208;9.182;2023-09-08T04:46:51;4.57;;;3.25;;
12593;SDS011;6362;50.208;9.182;2023-09-08T04:49:17;7.55;;;4.35;;
12593;SDS011;6362;50.208;9.182;2023-09-08T04:51:43;7.22;;;3.75;;
12593;SDS011;6362;50.208;9.182;2023-09-08T04:54:09;6.25;;;3.72;;
12593;SDS011;6362;50.208;9.182;2023-09-08T04:56:34;5.25;;;3.75;;
12593;SDS011;6362;50.208;9.182;2023-09-08T04:59:00;5.38;;;3.78;;
12593;SDS011;6362;50.208;9.182;2023-09-08T05:01:26;8.27;;;4.00;;
12593;SDS011;6362;50.208;9.182;2023-09-08T05:03:52;6.18;;;3.75;;
12593;SDS011;6362;50.208;9.182;2023-09-08T05:06:18;5.35;;;3.17;;
12593;SDS011;6362;50.208;9.182;2023-09-08T05:08:43;5.32;;;3.67;;
12593;SDS011;6362;50.208;9.182;2023-09-08T05:11:09;5.80;;;3.53;;
12593;SDS011;6362;50.208;9.182;2023-09-08T05:13:35;4.53;;;3.33;;
12593;SDS011;6362;50.208;9.182;2023-09-08T05:16:00;5.78;;;3.78;;
12593;SDS011;6362;50.208;9.182;2023-09-08T05:18:36;6.53;;;3.83;;
12593;SDS011;6362;50.208;9.182;2023-09-08T05:21:04;5.32;;;3.42;;
12593;SDS011;6362;50.208;9.182;2023-09-08T05:23:30;4.97;;;3.67;;
12593;SDS011;6362;50.208;9.182;2023-09-08T05:25:55;4.10;;;3.10;;
12593;SDS011;6362;50.208;9.182;2023-09-08T05:28:21;5.40;;;3.53;;
12593;SDS011;6362;50.208;9.182;2023-09-08T05:30:46;28.42;;;8.60;;
12593;SDS011;6362;50.208;9.182;2023-09-08T05:33:12;25.25;;;8.10;;
12593;SDS011;6362;50.208;9.182;2023-09-08T05:35:37;19.67;;;6.85;;
12593;SDS011;6362;50.208;9.182;2023-09-08T05:38:03;11.23;;;4.55;;
12593;SDS011;6362;50.208;9.182;2023-09-08T05:40:28;6.13;;;3.60;;
12593;SDS011;6362;50.208;9.182;2023-09-08T05:42:54;6.97;;;4.13;;
12593;SDS011;6362;50.208;9.182;2023-09-08T05:45:19;6.15;;;4.32;;
12593;SDS011;6362;50.208;9.182;2023-09-08T05:47:45;4.20;;;3.53;;
12593;SDS011;6362;50.208;9.182;2023-09-08T05:50:10;5.90;;;3.70;;
12593;SDS011;6362;50.208;9.182;2023-09-08T05:52:36;4.78;;;3.63;;
12593;SDS011;6362;50.208;9.182;2023-09-08T05:55:01;6.57;;;4.28;;
12593;SDS011;6362;50.208;9.182;2023-09-08T05:57:27;6.07;;;3.90;;
12593;SDS011;6362;50.208;9.182;2023-09-08T05:59:52;4.93;;;3.75;;
12593;SDS011;6362;50.208;9.182;2023-09-08T06:02:18;6.65;;;3.88;;
12593;SDS011;6362;50.208;9.182;2023-09-08T06:04:43;4.40;;;3.55;;
12593;SDS011;6362;50.208;9.182;2023-09-08T06:07:09;6.13;;;3.90;;
12593;SDS011;6362;50.208;9.182;2023-09-08T06:09:34;4.13;;;3.50;;
12593;SDS011;6362;50.208;9.182;2023-09-08T06:12:00;7.03;;;3.47;;
12593;SDS011;6362;50.208;9.182;2023-09-08T06:14:25;5.45;;;3.65;;
12593;SDS011;6362;50.208;9.182;2023-09-08T06:16:51;5.38;;;3.30;;
12593;SDS011;6362;50.208;9.182;2023-09-08T06:19:16;4.95;;;3.38;;
12593;SDS011;6362;50.208;9.182;2023-09-08T06:21:42;6.95;;;3.50;;
12593;SDS011;6362;50.208;9.182;2023-09-08T06:24:07;5.43;;;3.92;;
12593;SDS011;6362;50.208;9.182;2023-09-08T06:26:33;5.32;;;3.22;;
12593;SDS011;6362;50.208;9.182;2023-09-08T06:28:58;4.47;;;3.35;;
12593;SDS011;6362;50.208;9.182;2023-09-08T06:31:24;4.82;;;3.60;;
12593;SDS011;6362;50.208;9.182;2023-09-08T06:33:49;6.43;;;3.42;;
12593;SDS011;6362;50.208;9.182;2023-09-08T06:36:17;5.32;;;3.78;;
12593;SDS011;6362;50.208;9.182;2023-09-08T06:38:43;5.03;;;3.72;;
12593;SDS011;6362;50.208;9.182;2023-09-08T06:41:09;7.90;;;3.38;;
12593;SDS011;6362;50.208;9.182;2023-09-08T06:43:36;4.88;;;3.60;;
12593;SDS011;6362;50.208;9.182;2023-09-08T06:46:01;6.70;;;3.92;;
12593;SDS011;6362;50.208;9.182;2023-09-08T06:48:27;7.43;;;3.47;;
12593;SDS011;6362;50.208;9.182;2023-09-08T06:50:53;4.63;;;3.72;;
12593;SDS011;6362;50.208;9.182;2023-09-08T06:53:19;4.45;;;3.05;;
12593;SDS011;6362;50.208;9.182;2023-09-08T06:55:44;6.07;;;3.08;;
12593;SDS011;6362;50.208;9.182;2023-09-08T06:58:10;7.03;;;3.80;;
12593;SDS011;6362;50.208;9.182;2023-09-08T07:00:35;5.07;;;3.10;;
12593;SDS011;6362;50.208;9.182;2023-09-08T07:03:01;5.50;;;3.78;;
12593;SDS011;6362;50.208;9.182;2023-09-08T07:05:27;5.03;;;3.42;;
12593;SDS011;6362;50.208;9.182;2023-09-08T07:07:52;8.40;;;3.90;;
12593;SDS011;6362;50.208;9.182;2023-09-08T07:10:19;5.25;;;3.47;;
12593;SDS011;6362;50.208;9.182;2023-09-08T07:12:44;7.53;;;3.45;;
12593;SDS011;6362;50.208;9.182;2023-09-08T07:15:10;6.97;;;3.40;;
12593;SDS011;6362;50.208;9.182;2023-09-08T07:17:35;5.13;;;4.00;;
12593;SDS011;6362;50.208;9.182;2023-09-08T07:20:01;4.43;;;3.50;;
12593;SDS011;6362;50.208;9.182;2023-09-08T07:22:28;4.65;;;3.58;;
12593;SDS011;6362;50.208;9.182;2023-09-08T07:24:53;5.13;;;3.35;;
12593;SDS011;6362;50.208;9.182;2023-09-08T07:27:19;4.53;;;3.38;;
12593;SDS011;6362;50.208;9.182;2023-09-08T07:29:45;5.88;;;3.75;;
12593;SDS011;6362;50.208;9.182;2023-09-08T07:32:12;6.05;;;3.38;;
12593;SDS011;6362;50.208;9.182;2023-09-08T07:34:38;4.57;;;3.45;;
12593;SDS011;6362;50.208;9.182;2023-09-08T07:37:03;4.63;;;3.08;;
12593;SDS011;6362;50.208;9.182;2023-09-08T07:39:29;5.00;;;3.25;;
12593;SDS011;6362;50.208;9.182;2023-09-08T07:41:55;3.50;;;3.00;;
12593;SDS011;6362;50.208;9.182;2023-09-08T07:44:21;6.28;;;3.00;;
12593;SDS011;6362;50.208;9.182;2023-09-08T07:46:46;4.68;;;3.85;;
12593;SDS011;6362;50.208;9.182;2023-09-08T07:49:14;5.47;;;3.03;;
12593;SDS011;6362;50.208;9.182;2023-09-08T07:51:40;5.65;;;3.35;;
12593;SDS011;6362;50.208;9.182;2023-09-08T07:54:05;6.03;;;3.03;;
12593;SDS011;6362;50.208;9.182;2023-09-08T07:56:31;6.05;;;3.05;;
12593;SDS011;6362;50.208;9.182;2023-09-08T07:58:57;4.55;;;3.03;;
12593;SDS011;6362;50.208;9.182;2023-09-08T08:01:23;5.57;;;3.53;;
12593;SDS011;6362;50.208;9.182;2023-09-08T08:03:48;5.10;;;3.60;;
12593;SDS011;6362;50.208;9.182;2023-09-08T08:06:14;3.92;;;3.10;;
12593;SDS011;6362;50.208;9.182;2023-09-08T08:08:39;3.88;;;2.97;;
12593;SDS011;6362;50.208;9.182;2023-09-08T08:11:12;5.15;;;3.35;;
12593;SDS011;6362;50.208;9.182;2023-09-08T08:13:38;4.03;;;3.28;;
12593;SDS011;6362;50.208;9.182;2023-09-08T08:16:04;5.05;;;3.15;;
12593;SDS011;6362;50.208;9.182;2023-09-08T08:18:29;3.78;;;3.08;;
12593;SDS011;6362;50.208;9.182;2023-09-08T08:20:54;6.05;;;3.78;;
12593;SDS011;6362;50.208;9.182;2023-09-08T08:23:20;4.05;;;3.03;;
12593;SDS011;6362;50.208;9.182;2023-09-08T08:25:45;5.25;;;3.00;;
12593;SDS011;6362;50.208;9.182;2023-09-08T08:28:11;4.35;;;3.13;;
12593;SDS011;6362;50.208;9.182;2023-09-08T08:30:37;9.23;;;3.40;;
12593;SDS011;6362;50.208;9.182;2023-09-08T08:33:02;4.45;;;2.85;;
12593;SDS011;6362;50.208;9.182;2023-09-08T08:35:29;5.85;;;3.60;;
12593;SDS011;6362;50.208;9.182;2023-09-08T08:37:54;8.82;;;3.33;;
12593;SDS011;6362;50.208;9.182;2023-09-08T08:40:22;6.22;;;3.58;;
12593;SDS011;6362;50.208;9.182;2023-09-08T08:42:53;4.65;;;3.20;;
12593;SDS011;6362;50.208;9.182;2023-09-08T08:45:20;5.55;;;2.88;;
12593;SDS011;6362;50.208;9.182;2023-09-08T08:47:48;3.63;;;3.05;;
12593;SDS011;6362;50.208;9.182;2023-09-08T08:50:14;3.35;;;2.92;;
12593;SDS011;6362;50.208;9.182;2023-09-08T08:52:42;5.63;;;3.20;;
12593;SDS011;6362;50.208;9.182;2023-09-08T08:55:08;5.80;;;3.38;;
12593;SDS011;6362;50.208;9.182;2023-09-08T08:57:34;5.60;;;3.55;;
12593;SDS011;6362;50.208;9.182;2023-09-08T09:00:03;5.50;;;2.92;;
12593;SDS011;6362;50.208;9.182;2023-09-08T09:02:33;3.58;;;3.25;;
12593;SDS011;6362;50.208;9.182;2023-09-08T09:05:00;4.85;;;2.88;;
12593;SDS011;6362;50.208;9.182;2023-09-08T09:07:26;5.63;;;2.80;;
12593;SDS011;6362;50.208;9.182;2023-09-08T09:09:52;3.92;;;3.08;;
12593;SDS011;6362;50.208;9.182;2023-09-08T09:12:18;4.72;;;3.28;;
12593;SDS011;6362;50.208;9.182;2023-09-08T09:14:47;5.45;;;2.83;;
12593;SDS011;6362;50.208;9.182;2023-09-08T09:17:13;4.43;;;3.30;;
12593;SDS011;6362;50.208;9.182;2023-09-08T09:19:39;4.60;;;3.15;;
12593;SDS011;6362;50.208;9.182;2023-09-08T09:22:05;3.55;;;2.75;;
12593;SDS011;6362;50.208;9.182;2023-09-08T09:24:40;6.40;;;3.15;;
12593;SDS011;6362;50.208;9.182;2023-09-08T09:27:08;5.93;;;3.00;;
12593;SDS011;6362;50.208;9.182;2023-09-08T09:29:43;3.92;;;2.85;;
12593;SDS011;6362;50.208;9.182;2023-09-08T09:32:10;3.33;;;3.03;;
12593;SDS011;6362;50.208;9.182;2023-09-08T09:34:36;4.18;;;2.90;;
12593;SDS011;6362;50.208;9.182;2023-09-08T09:37:12;7.47;;;4.65;;
12593;SDS011;6362;50.208;9.182;2023-09-08T09:39:38;4.95;;;3.20;;
12593;SDS011;6362;50.208;9.182;2023-09-08T09:42:03;4.18;;;3.25;;
12593;SDS011;6362;50.208;9.182;2023-09-08T09:44:29;5.05;;;3.15;;
12593;SDS011;6362;50.208;9.182;2023-09-08T09:46:54;5.45;;;2.75;;
12593;SDS011;6362;50.208;9.182;2023-09-08T09:49:20;4.38;;;2.63;;
12593;SDS011;6362;50.208;9.182;2023-09-08T09:51:47;3.45;;;2.65;;
12593;SDS011;6362;50.208;9.182;2023-09-08T09:54:13;4.55;;;2.92;;
12593;SDS011;6362;50.208;9.182;2023-09-08T09:56:40;3.65;;;2.83;;
12593;SDS011;6362;50.208;9.182;2023-09-08T09:59:11;4.05;;;3.00;;
12593;SDS011;6362;50.208;9.182;2023-09-08T10:01:37;4.38;;;3.13;;
12593;SDS011;6362;50.208;9.182;2023-09-08T10:04:04;4.18;;;2.97;;
12593;SDS011;6362;50.208;9.182;2023-09-08T10:06:34;6.68;;;2.85;;
12593;SDS011;6362;50.208;9.182;2023-09-08T10:09:05;7.57;;;2.80;;
12593;SDS011;6362;50.208;9.182;2023-09-08T10:11:42;5.63;;;2.90;;
12593;SDS011;6362;50.208;9.182;2023-09-08T10:14:12;4.10;;;2.70;;
12593;SDS011;6362;50.208;9.182;2023-09-08T10:16:39;5.30;;;3.13;;
12593;SDS011;6362;50.208;9.182;2023-09-08T10:19:08;3.17;;;2.72;;
12593;SDS011;6362;50.208;9.182;2023-09-08T10:21:39;3.42;;;3.03;;
12593;SDS011;6362;50.208;9.182;2023-09-08T10:24:23;5.95;;;2.88;;
12593;SDS011;6362;50.208;9.182;2023-09-08T10:26:56;3.67;;;2.42;;
12593;SDS011;6362;50.208;9.182;2023-09-08T10:29:26;4.68;;;2.67;;
12593;SDS011;6362;50.208;9.182;2023-09-08T10:31:52;5.13;;;2.65;;
12593;SDS011;6362;50.208;9.182;2023-09-08T10:34:20;3.53;;;2.80;;
12593;SDS011;6362;50.208;9.182;2023-09-08T10:36:46;6.47;;;2.97;;
12593;SDS011;6362;50.208;9.182;2023-09-08T10:44:41;3.25;;;2.58;;
12593;SDS011;6362;50.208;9.182;2023-09-08T10:47:09;3.58;;;2.72;;
12593;SDS011;6362;50.208;9.182;2023-09-08T10:49:35;3.95;;;2.88;;
12593;SDS011;6362;50.208;9.182;2023-09-08T10:52:10;3.50;;;2.70;;
12593;SDS011;6362;50.208;9.182;2023-09-08T10:54:41;4.63;;;2.30;;
12593;SDS011;6362;50.208;9.182;2023-09-08T10:57:12;4.80;;;3.15;;
12593;SDS011;6362;50.208;9.182;2023-09-08T11:00:24;6.13;;;3.20;;
12593;SDS011;6362;50.208;9.182;2023-09-08T11:02:40;3.33;;;2.80;;
12593;SDS011;6362;50.208;9.182;2023-09-08T11:05:07;2.63;;;2.40;;
12593;SDS011;6362;50.208;9.182;2023-09-08T11:07:38;2.95;;;2.70;;
12593;SDS011;6362;50.208;9.182;2023-09-08T11:10:04;4.20;;;2.63;;
12593;SDS011;6362;50.208;9.182;2023-09-08T11:12:31;3.65;;;2.17;;
12593;SDS011;6362;50.208;9.182;2023-09-08T11:14:57;3.55;;;3.08;;
12593;SDS011;6362;50.208;9.182;2023-09-08T11:17:29;3.08;;;2.75;;
12593;SDS011;6362;50.208;9.182;2023-09-08T11:19:55;4.05;;;3.00;;
12593;SDS011;6362;50.208;9.182;2023-09-08T11:22:22;5.80;;;3.22;;
12593;SDS011;6362;50.208;9.182;2023-09-08T11:24:55;2.95;;;2.50;;
12593;SDS011;6362;50.208;9.182;2023-09-08T11:29:51;3.50;;;2.75;;
12593;SDS011;6362;50.208;9.182;2023-09-08T11:32:17;4.25;;;2.40;;
12593;SDS011;6362;50.208;9.182;2023-09-08T11:34:43;4.75;;;2.70;;
12593;SDS011;6362;50.208;9.182;2023-09-08T11:37:09;3.20;;;2.50;;
12593;SDS011;6362;50.208;9.182;2023-09-08T11:39:38;4.05;;;2.60;;
12593;SDS011;6362;50.208;9.182;2023-09-08T11:42:10;3.45;;;2.65;;
12593;SDS011;6362;50.208;9.182;2023-09-08T11:44:37;3.38;;;2.88;;
12593;SDS011;6362;50.208;9.182;2023-09-08T11:47:03;2.78;;;2.40;;
12593;SDS011;6362;50.208;9.182;2023-09-08T11:49:37;3.70;;;2.85;;
12593;SDS011;6362;50.208;9.182;2023-09-08T11:52:04;3.60;;;2.83;;
12593;SDS011;6362;50.208;9.182;2023-09-08T11:54:34;4.00;;;3.00;;
12593;SDS011;6362;50.208;9.182;2023-09-08T11:57:02;3.45;;;2.90;;
12593;SDS011;6362;50.208;9.182;2023-09-08T11:59:30;3.63;;;2.75;;
12593;SDS011;6362;50.208;9.182;2023-09-08T12:01:58;3.13;;;2.58;;
12593;SDS011;6362;50.208;9.182;2023-09-08T12:04:24;3.33;;;2.80;;
12593;SDS011;6362;50.208;9.182;2023-09-08T12:06:51;3.47;;;2.53;;
12593;SDS011;6362;50.208;9.182;2023-09-08T12:09:17;4.10;;;2.90;;
12593;SDS011;6362;50.208;9.182;2023-09-08T12:11:45;3.55;;;2.85;;
12593;SDS011;6362;50.208;9.182;2023-09-08T12:14:11;4.05;;;2.85;;
12593;SDS011;6362;50.208;9.182;2023-09-08T12:16:38;4.07;;;2.60;;
12593;SDS011;6362;50.208;9.182;2023-09-08T12:19:03;5.50;;;2.90;;
12593;SDS011;6362;50.208;9.182;2023-09-08T12:21:29;4.07;;;2.45;;
12593;SDS011;6362;50.208;9.182;2023-09-08T12:23:57;10.57;;;2.88;;
12593;SDS011;6362;50.208;9.182;2023-09-08T12:26:24;2.88;;;2.30;;
12593;SDS011;6362;50.208;9.182;2023-09-08T12:28:50;5.70;;;2.83;;
12593;SDS011;6362;50.208;9.182;2023-09-08T12:31:16;4.47;;;2.67;;
12593;SDS011;6362;50.208;9.182;2023-09-08T12:33:43;6.32;;;2.85;;
12593;SDS011;6362;50.208;9.182;2023-09-08T12:36:16;4.65;;;2.47;;
12593;SDS011;6362;50.208;9.182;2023-09-08T12:38:50;4.20;;;2.72;;
12593;SDS011;6362;50.208;9.182;2023-09-08T12:41:17;4.97;;;2.63;;
12593;SDS011;6362;50.208;9.182;2023-09-08T12:43:43;2.20;;;2.00;;
12593;SDS011;6362;50.208;9.182;2023-09-08T12:46:08;4.70;;;2.90;;
12593;SDS011;6362;50.208;9.182;2023-09-08T12:48:34;4.22;;;2.40;;
12593;SDS011;6362;50.208;9.182;2023-09-08T12:51:00;4.95;;;2.70;;
12593;SDS011;6362;50.208;9.182;2023-09-08T12:53:26;4.72;;;2.70;;
12593;SDS011;6362;50.208;9.182;2023-09-08T12:55:52;3.35;;;2.80;;
12593;SDS011;6362;50.208;9.182;2023-09-08T12:58:17;5.55;;;2.50;;
12593;SDS011;6362;50.208;9.182;2023-09-08T13:00:43;3.13;;;2.40;;
12593;SDS011;6362;50.208;9.182;2023-09-08T13:03:09;2.30;;;2.10;;
12593;SDS011;6362;50.208;9.182;2023-09-08T13:05:35;3.17;;;2.50;;
12593;SDS011;6362;50.208;9.182;2023-09-08T13:08:01;5.18;;;2.97;;
12593;SDS011;6362;50.208;9.182;2023-09-08T13:10:26;2.83;;;2.33;;
12593;SDS011;6362;50.208;9.182;2023-09-08T13:12:52;5.60;;;2.60;;
12593;SDS011;6362;50.208;9.182;2023-09-08T13:15:17;4.20;;;2.60;;
12593;SDS011;6362;50.208;9.182;2023-09-08T13:17:43;5.45;;;2.55;;
12593;SDS011;6362;50.208;9.182;2023-09-08T13:20:09;5.70;;;2.50;;
12593;SDS011;6362;50.208;9.182;2023-09-08T13:22:34;3.17;;;2.63;;
12593;SDS011;6362;50.208;9.182;2023-09-08T13:25:00;3.97;;;3.00;;
12593;SDS011;6362;50.208;9.182;2023-09-08T13:27:25;4.28;;;2.53;;
12593;SDS011;6362;50.208;9.182;2023-09-08T13:29:53;4.30;;;2.95;;
12593;SDS011;6362;50.208;9.182;2023-09-08T13:32:19;2.65;;;2.22;;
12593;SDS011;6362;50.208;9.182;2023-09-08T13:34:44;4.20;;;2.80;;
12593;SDS011;6362;50.208;9.182;2023-09-08T13:37:12;3.42;;;2.40;;
12593;SDS011;6362;50.208;9.182;2023-09-08T13:39:38;5.78;;;2.40;;
12593;SDS011;6362;50.208;9.182;2023-09-08T13:42:04;3.40;;;2.50;;
12593;SDS011;6362;50.208;9.182;2023-09-08T13:44:29;3.50;;;1.90;;
12593;SDS011;6362;50.208;9.182;2023-09-08T13:46:55;3.33;;;2.53;;
12593;SDS011;6362;50.208;9.182;2023-09-08T13:49:21;4.93;;;2.30;;
12593;SDS011;6362;50.208;9.182;2023-09-08T13:51:47;3.92;;;2.33;;
12593;SDS011;6362;50.208;9.182;2023-09-08T13:54:14;3.85;;;2.40;;
12593;SDS011;6362;50.208;9.182;2023-09-08T13:56:40;3.72;;;2.47;;
12593;SDS011;6362;50.208;9.182;2023-09-08T13:59:06;7.03;;;2.80;;
12593;SDS011;6362;50.208;9.182;2023-09-08T14:01:35;5.38;;;2.60;;
12593;SDS011;6362;50.208;9.182;2023-09-08T14:04:02;2.97;;;2.35;;
12593;SDS011;6362;50.208;9.182;2023-09-08T14:06:33;5.25;;;3.08;;
12593;SDS011;6362;50.208;9.182;2023-09-08T14:08:59;3.92;;;2.60;;
12593;SDS011;6362;50.208;9.182;2023-09-08T14:11:25;6.30;;;2.22;;
12593;SDS011;6362;50.208;9.182;2023-09-08T14:13:51;3.58;;;2.63;;
12593;SDS011;6362;50.208;9.182;2023-09-08T14:16:17;2.78;;;2.38;;
12593;SDS011;6362;50.208;9.182;2023-09-08T14:18:44;6.30;;;2.67;;
12593;SDS011;6362;50.208;9.182;2023-09-08T14:21:09;11.35;;;3.22;;
12593;SDS011;6362;50.208;9.182;2023-09-08T14:23:35;3.55;;;2.25;;
12593;SDS011;6362;50.208;9.182;2023-09-08T14:26:02;3.35;;;2.40;;
12593;SDS011;6362;50.208;9.182;2023-09-08T14:28:28;4.40;;;2.30;;
12593;SDS011;6362;50.208;9.182;2023-09-08T14:30:53;3.83;;;2.72;;
12593;SDS011;6362;50.208;9.182;2023-09-08T14:33:19;3.90;;;2.67;;
12593;SDS011;6362;50.208;9.182;2023-09-08T14:35:45;4.80;;;1.90;;
12593;SDS011;6362;50.208;9.182;2023-09-08T14:38:16;4.35;;;2.58;;
12593;SDS011;6362;50.208;9.182;2023-09-08T14:40:41;4.75;;;2.58;;
12593;SDS011;6362;50.208;9.182;2023-09-08T14:43:07;2.83;;;2.25;;
12593;SDS011;6362;50.208;9.182;2023-09-08T14:45:32;3.72;;;2.53;;
12593;SDS011;6362;50.208;9.182;2023-09-08T14:47:58;4.05;;;2.90;;
12593;SDS011;6362;50.208;9.182;2023-09-08T14:50:23;4.25;;;2.63;;
12593;SDS011;6362;50.208;9.182;2023-09-08T14:52:49;4.35;;;2.40;;
12593;SDS011;6362;50.208;9.182;2023-09-08T14:55:14;3.35;;;2.63;;
12593;SDS011;6362;50.208;9.182;2023-09-08T14:57:40;4.53;;;2.70;;
12593;SDS011;6362;50.208;9.182;2023-09-08T15:00:07;4.90;;;2.95;;
12593;SDS011;6362;50.208;9.182;2023-09-08T15:02:33;9.65;;;3.72;;
12593;SDS011;6362;50.208;9.182;2023-09-08T15:04:58;3.55;;;2.50;;
12593;SDS011;6362;50.208;9.182;2023-09-08T15:07:24;4.35;;;2.70;;
12593;SDS011;6362;50.208;9.182;2023-09-08T15:09:49;3.13;;;2.50;;